createdAt,value
2023-02-19T00:01:09.149Z,7.09
2023-02-19T00:02:40.789Z,7.30
2023-02-19T00:04:13.198Z,7.81
2023-02-19T00:05:44.979Z,7.24
2023-02-19T00:07:16.317Z,8.49
2023-02-19T00:08:47.622Z,7.64
2023-02-19T00:10:18.964Z,7.51
2023-02-19T00:11:50.496Z,10.04
2023-02-19T00:13:22.080Z,7.86
2023-02-19T00:14:53.455Z,7.14
2023-02-19T00:16:24.899Z,11.80
2023-02-19T00:17:56.189Z,7.61
2023-02-19T00:19:37.639Z,10.15
2023-02-19T00:21:09.390Z,11.17
2023-02-19T00:22:40.862Z,11.47
2023-02-19T00:24:12.283Z,13.83
2023-02-19T00:25:43.789Z,13.55
2023-02-19T00:27:15.380Z,11.43
2023-02-19T00:28:46.687Z,11.28
2023-02-19T00:30:18.092Z,14.30
2023-02-19T00:31:49.777Z,12.78
2023-02-19T00:33:21.223Z,16.96
2023-02-19T00:34:52.661Z,12.74
2023-02-19T00:36:24.071Z,12.93
2023-02-19T00:37:55.379Z,12.79
2023-02-19T00:39:26.726Z,17.03
2023-02-19T00:40:58.435Z,15.13
2023-02-19T00:42:29.743Z,17.17
2023-02-19T00:44:01.442Z,24.65
2023-02-19T00:45:32.803Z,18.91
2023-02-19T00:47:04.128Z,14.74
2023-02-19T00:48:35.453Z,15.08
2023-02-19T00:50:06.869Z,10.52
2023-02-19T00:51:38.213Z,19.78
2023-02-19T00:53:09.583Z,17.61
2023-02-19T00:54:40.974Z,23.47
2023-02-19T00:56:12.264Z,19.30
2023-02-19T00:57:43.897Z,21.81
2023-02-19T00:59:15.302Z,19.82
2023-02-19T01:00:46.619Z,14.26
2023-02-19T01:02:17.894Z,11.16
2023-02-19T01:03:49.190Z,17.99
2023-02-19T01:05:20.679Z,16.72
2023-02-19T01:06:52.001Z,12.19
2023-02-19T01:08:23.532Z,16.93
2023-02-19T01:09:54.888Z,15.86
2023-02-19T01:11:26.246Z,9.41
2023-02-19T01:12:57.516Z,8.57
2023-02-19T01:14:29.132Z,11.65
2023-02-19T01:16:00.513Z,10.10
2023-02-19T01:17:32.011Z,11.79
2023-02-19T01:19:03.318Z,9.97
2023-02-19T01:20:34.630Z,10.88
2023-02-19T01:22:06.038Z,12.16
2023-02-19T01:23:37.351Z,10.09
2023-02-19T01:25:08.710Z,7.03
2023-02-19T01:26:40.708Z,10.78
2023-02-19T01:28:11.936Z,7.01
2023-02-19T01:29:43.249Z,8.94
2023-02-19T01:31:14.806Z,10.18
2023-02-19T01:32:46.879Z,11.63
2023-02-19T01:34:18.395Z,9.74
2023-02-19T01:35:49.722Z,12.23
2023-02-19T01:37:21.021Z,13.64
2023-02-19T01:38:52.369Z,12.40
2023-02-19T01:40:24.072Z,13.14
2023-02-19T01:41:55.492Z,11.51
2023-02-19T01:43:26.782Z,11.58
2023-02-19T01:44:58.094Z,13.99
2023-02-19T01:46:29.771Z,18.16
2023-02-19T01:48:01.228Z,11.76
2023-02-19T01:49:32.475Z,11.84
2023-02-19T01:51:03.673Z,15.36
2023-02-19T01:52:35.134Z,18.76
2023-02-19T01:54:06.619Z,18.09
2023-02-19T01:55:38.341Z,15.68
2023-02-19T01:57:09.742Z,9.45
2023-02-19T01:58:41.242Z,14.01
2023-02-19T02:00:12.923Z,16.14
2023-02-19T02:01:44.249Z,22.33
2023-02-19T02:03:15.652Z,20.51
2023-02-19T02:04:46.945Z,21.82
2023-02-19T02:06:18.355Z,21.14
2023-02-19T02:07:49.758Z,18.32
2023-02-19T02:09:21.179Z,14.99
2023-02-19T02:10:52.577Z,10.63
2023-02-19T02:12:24.215Z,15.11
2023-02-19T02:13:55.472Z,20.41
2023-02-19T02:15:26.694Z,14.41
2023-02-19T02:16:58.102Z,14.71
2023-02-19T02:18:29.495Z,14.08
2023-02-19T02:20:01.003Z,18.96
2023-02-19T02:21:32.524Z,20.33
2023-02-19T02:23:03.771Z,15.75
2023-02-19T02:24:35.007Z,13.47
2023-02-19T02:26:06.279Z,12.09
2023-02-19T02:27:37.631Z,11.54
2023-02-19T02:29:09.016Z,15.16
2023-02-19T02:30:40.319Z,14.03
2023-02-19T02:32:11.686Z,12.72
2023-02-19T02:33:43.276Z,15.43
2023-02-19T02:35:14.742Z,13.21
2023-02-19T02:36:46.104Z,13.13
2023-02-19T02:38:17.667Z,11.59
2023-02-19T02:39:49.054Z,11.18
2023-02-19T02:41:20.352Z,14.02
2023-02-19T02:42:51.621Z,15.00
2023-02-19T02:44:23.035Z,12.81
2023-02-19T02:45:54.539Z,17.52
2023-02-19T02:47:25.923Z,16.72
2023-02-19T02:48:57.250Z,19.80
2023-02-19T02:50:28.666Z,19.78
2023-02-19T02:51:59.977Z,17.76
2023-02-19T02:53:31.280Z,17.99
2023-02-19T02:55:02.805Z,18.73
2023-02-19T02:56:34.173Z,19.67
2023-02-19T02:58:05.652Z,21.91
2023-02-19T02:59:37.078Z,23.80
2023-02-19T03:01:08.804Z,25.14
2023-02-19T03:02:40.287Z,25.40
2023-02-19T03:04:11.884Z,27.46
2023-02-19T03:05:43.168Z,22.59
2023-02-19T03:07:14.527Z,23.40
2023-02-19T03:08:45.794Z,28.31
2023-02-19T03:10:17.251Z,21.06
2023-02-19T03:11:48.534Z,23.00
2023-02-19T03:13:19.946Z,24.25
2023-02-19T03:14:51.239Z,28.00
2023-02-19T03:16:22.655Z,29.97
2023-02-19T03:17:54.157Z,26.14
2023-02-19T03:19:25.571Z,30.91
2023-02-19T03:20:57.245Z,29.25
2023-02-19T03:22:28.691Z,31.53
2023-02-19T03:24:00.122Z,31.06
2023-02-19T03:25:31.758Z,25.28
2023-02-19T03:27:03.127Z,21.04
2023-02-19T03:28:34.413Z,24.13
2023-02-19T03:30:05.736Z,25.48
2023-02-19T03:31:37.286Z,28.02
2023-02-19T03:33:09.049Z,30.47
2023-02-19T03:34:40.549Z,29.24
2023-02-19T03:36:11.933Z,27.02
2023-02-19T03:37:43.234Z,24.34
2023-02-19T03:39:19.551Z,31.00
2023-02-19T03:40:50.985Z,27.71
2023-02-19T03:42:22.357Z,23.01
2023-02-19T03:43:53.714Z,24.80
2023-02-19T03:45:25.119Z,18.61
2023-02-19T03:46:56.740Z,19.98
2023-02-19T03:48:28.320Z,19.75
2023-02-19T03:49:59.785Z,21.10
2023-02-19T03:51:30.967Z,16.78
2023-02-19T03:53:02.494Z,16.31
2023-02-19T03:54:35.021Z,21.15
2023-02-19T03:56:06.267Z,18.71
2023-02-19T03:57:37.537Z,20.83
2023-02-19T03:59:08.783Z,16.52
2023-02-19T04:00:40.323Z,14.06
2023-02-19T04:02:11.727Z,14.03
2023-02-19T04:03:43.214Z,14.55
2023-02-19T04:05:14.611Z,14.66
2023-02-19T04:06:46.107Z,13.46
2023-02-19T04:08:17.388Z,10.64
2023-02-19T04:09:48.845Z,16.02
2023-02-19T04:11:20.076Z,15.71
2023-02-19T04:12:51.388Z,16.30
2023-02-19T04:14:22.773Z,14.88
2023-02-19T04:15:54.260Z,15.50
2023-02-19T04:17:25.644Z,17.24
2023-02-19T04:18:57.081Z,15.58
2023-02-19T04:20:28.450Z,14.03
2023-02-19T04:21:59.707Z,15.32
2023-02-19T04:23:31.115Z,17.02
2023-02-19T04:25:02.499Z,14.08
2023-02-19T04:26:33.865Z,16.37
2023-02-19T04:28:05.226Z,15.89
2023-02-19T04:29:39.035Z,16.52
2023-02-19T04:31:10.729Z,16.23
2023-02-19T04:32:42.133Z,11.20
2023-02-19T04:34:13.470Z,13.20
2023-02-19T04:35:45.119Z,15.15
2023-02-19T04:37:16.402Z,12.79
2023-02-19T04:38:47.664Z,9.63
2023-02-19T04:40:18.959Z,11.46
2023-02-19T04:41:50.276Z,10.87
2023-02-19T04:43:21.538Z,9.49
2023-02-19T04:44:52.802Z,12.34
2023-02-19T04:46:24.152Z,13.41
2023-02-19T04:47:55.466Z,15.43
2023-02-19T04:49:26.776Z,16.05
2023-02-19T04:50:58.939Z,15.30
2023-02-19T04:52:30.468Z,14.32
2023-02-19T04:54:01.889Z,16.24
2023-02-19T04:55:33.206Z,13.91
2023-02-19T04:57:04.478Z,15.68
2023-02-19T04:58:35.805Z,16.18
2023-02-19T05:00:07.096Z,16.30
2023-02-19T05:01:38.420Z,15.71
2023-02-19T05:03:10.053Z,15.95
2023-02-19T05:04:41.784Z,15.37
2023-02-19T05:06:13.232Z,12.79
2023-02-19T05:07:44.652Z,13.77
2023-02-19T05:09:16.202Z,16.05
2023-02-19T05:10:47.531Z,15.70
2023-02-19T05:12:18.987Z,14.93
2023-02-19T05:13:50.304Z,16.23
2023-02-19T05:15:21.817Z,13.93
2023-02-19T05:16:53.075Z,15.29
2023-02-19T05:18:24.554Z,12.90
2023-02-19T05:19:55.823Z,11.98
2023-02-19T05:21:27.214Z,12.55
2023-02-19T05:22:58.511Z,12.38
2023-02-19T05:24:29.917Z,13.89
2023-02-19T05:26:01.447Z,14.48
2023-02-19T05:27:32.714Z,15.21
2023-02-19T05:29:03.960Z,15.23
2023-02-19T05:30:35.314Z,14.91
2023-02-19T05:32:06.662Z,14.60
2023-02-19T05:33:37.924Z,11.62
2023-02-19T05:35:09.317Z,11.20
2023-02-19T05:36:40.832Z,13.28
2023-02-19T05:38:12.236Z,13.13
2023-02-19T05:39:43.526Z,14.56
2023-02-19T05:41:15.140Z,13.58
2023-02-19T05:42:46.435Z,13.76
2023-02-19T05:44:17.985Z,13.55
2023-02-19T05:45:49.331Z,14.27
2023-02-19T05:47:20.605Z,14.42
2023-02-19T05:48:51.931Z,12.22
2023-02-19T05:50:23.200Z,14.50
2023-02-19T05:51:54.602Z,14.82
2023-02-19T05:53:40.884Z,13.58
2023-02-19T05:55:12.299Z,12.57
2023-02-19T05:56:43.766Z,16.00
2023-02-19T05:58:15.330Z,12.17
2023-02-19T06:00:26.391Z,10.76
2023-02-19T06:01:58.370Z,15.46
2023-02-19T06:03:34.720Z,15.58
2023-02-19T06:05:41.145Z,11.80
2023-02-19T06:07:12.821Z,12.65
2023-02-19T06:09:00.980Z,11.58
2023-02-19T06:10:42.437Z,12.65
2023-02-19T06:12:13.788Z,14.89
2023-02-19T06:13:59.934Z,13.65
2023-02-19T06:15:47.768Z,15.46
2023-02-19T06:17:24.410Z,14.56
2023-02-19T06:18:55.879Z,15.88
2023-02-19T06:20:32.165Z,16.57
2023-02-19T06:22:03.418Z,15.33
2023-02-19T06:23:34.628Z,12.52
2023-02-19T06:25:05.884Z,12.36
2023-02-19T06:26:42.215Z,14.63
2023-02-19T06:28:13.477Z,14.83
2023-02-19T06:29:54.782Z,15.34
2023-02-19T06:31:26.179Z,14.84
2023-02-19T06:32:57.961Z,14.21
2023-02-19T06:34:46.819Z,14.96
2023-02-19T06:36:59.317Z,15.69
2023-02-19T06:38:55.904Z,13.84
2023-02-19T06:40:37.621Z,12.14
2023-02-19T06:42:29.149Z,13.55
2023-02-19T06:44:01.173Z,11.29
2023-02-19T06:45:32.860Z,14.64
2023-02-19T06:47:04.117Z,12.87
2023-02-19T06:48:46.422Z,13.93
2023-02-19T06:50:30.540Z,14.59
2023-02-19T06:52:01.841Z,15.85
2023-02-19T06:53:38.384Z,14.59
2023-02-19T06:55:09.736Z,13.59
2023-02-19T06:56:41.351Z,14.80
2023-02-19T06:58:12.595Z,12.44
2023-02-19T06:59:43.926Z,12.65
2023-02-19T07:01:15.232Z,12.83
2023-02-19T07:02:47.980Z,15.95
2023-02-19T07:04:19.783Z,12.92
2023-02-19T07:05:51.314Z,11.90
2023-02-19T07:07:22.546Z,13.76
2023-02-19T07:08:54.055Z,14.48
2023-02-19T07:10:25.410Z,12.56
2023-02-19T07:11:56.791Z,10.76
2023-02-19T07:13:28.215Z,11.97
2023-02-19T07:14:59.528Z,13.97
2023-02-19T07:16:31.059Z,14.05
2023-02-19T07:18:02.382Z,11.53
2023-02-19T07:19:33.775Z,14.70
2023-02-19T07:21:05.319Z,10.85
2023-02-19T07:22:36.911Z,10.70
2023-02-19T07:24:08.194Z,11.40
2023-02-19T07:25:39.501Z,13.09
2023-02-19T07:27:10.830Z,12.58
2023-02-19T07:28:42.338Z,13.73
2023-02-19T07:30:13.616Z,13.02
2023-02-19T07:31:45.331Z,13.36
2023-02-19T07:33:16.890Z,11.99
2023-02-19T07:34:48.360Z,13.06
2023-02-19T07:36:19.648Z,12.88
2023-02-19T07:37:56.292Z,14.11
2023-02-19T07:39:27.509Z,13.31
2023-02-19T07:40:59.072Z,14.53
2023-02-19T07:42:30.375Z,13.82
2023-02-19T07:44:01.688Z,12.57
2023-02-19T07:45:33.180Z,9.57
2023-02-19T07:47:04.528Z,12.14
2023-02-19T07:48:45.908Z,9.76
2023-02-19T07:50:22.302Z,13.56
2023-02-19T07:52:34.137Z,12.48
2023-02-19T07:54:05.614Z,10.89
2023-02-19T07:55:37.732Z,10.19
2023-02-19T07:57:09.311Z,8.83
2023-02-19T07:59:02.236Z,10.29
2023-02-19T08:00:34.045Z,11.30
2023-02-19T08:02:05.434Z,10.59
2023-02-19T08:03:37.020Z,13.37
2023-02-19T08:05:30.677Z,11.23
2023-02-19T08:07:02.349Z,10.51
2023-02-19T08:08:33.933Z,10.75
2023-02-19T08:10:05.650Z,11.36
2023-02-19T08:11:42.178Z,11.69
2023-02-19T08:13:13.649Z,12.19
2023-02-19T08:14:44.957Z,10.69
2023-02-19T08:16:43.850Z,12.94
2023-02-19T08:18:22.376Z,13.06
2023-02-19T08:19:53.649Z,11.74
2023-02-19T08:21:24.932Z,10.96
2023-02-19T08:22:56.282Z,11.61
2023-02-19T08:24:27.550Z,11.42
2023-02-19T08:25:58.821Z,11.22
2023-02-19T08:27:50.329Z,8.14
2023-02-19T08:29:22.726Z,9.88
2023-02-19T08:30:54.172Z,9.16
2023-02-19T08:32:25.646Z,10.88
2023-02-19T08:33:57.119Z,9.24
2023-02-19T08:35:28.416Z,10.39
2023-02-19T08:36:59.698Z,10.72
2023-02-19T08:38:40.991Z,11.58
2023-02-19T08:40:13.380Z,10.07
2023-02-19T08:41:44.833Z,9.51
2023-02-19T08:43:16.401Z,11.80
2023-02-19T08:44:47.869Z,11.06
2023-02-19T08:46:19.558Z,8.62
2023-02-19T08:47:50.972Z,9.13
2023-02-19T08:49:22.868Z,10.94
2023-02-19T08:50:54.521Z,8.97
2023-02-19T08:52:26.276Z,10.78
2023-02-19T08:53:58.279Z,11.01
2023-02-19T08:55:40.774Z,10.28
2023-02-19T08:57:12.376Z,9.23
2023-02-19T08:58:44.285Z,9.76
2023-02-19T09:00:16.556Z,10.13
2023-02-19T09:01:48.079Z,10.07
2023-02-19T09:03:19.402Z,8.69
2023-02-19T09:04:50.839Z,8.00
2023-02-19T09:06:22.551Z,9.64
2023-02-19T09:07:53.983Z,11.11
2023-02-19T09:09:25.384Z,9.45
2023-02-19T09:10:56.798Z,9.64
2023-02-19T09:12:28.197Z,10.09
2023-02-19T09:13:59.829Z,9.75
2023-02-19T09:15:31.145Z,10.25
2023-02-19T09:17:02.392Z,9.44
2023-02-19T09:18:33.642Z,7.79
2023-02-19T09:20:04.934Z,7.38
2023-02-19T09:21:36.518Z,9.42
2023-02-19T09:23:08.048Z,10.71
2023-02-19T09:24:39.744Z,10.87
2023-02-19T09:26:11.214Z,8.49
2023-02-19T09:27:42.566Z,9.62
2023-02-19T09:29:14.473Z,8.20
2023-02-19T09:30:46.004Z,7.82
2023-02-19T09:32:19.165Z,6.73
2023-02-19T09:33:50.955Z,8.63
2023-02-19T09:35:22.263Z,8.95
2023-02-19T09:36:53.564Z,10.35
2023-02-19T09:38:24.960Z,11.34
2023-02-19T09:40:18.546Z,10.02
2023-02-19T09:41:55.651Z,10.41
2023-02-19T09:43:26.956Z,9.48
2023-02-19T09:44:58.840Z,10.69
2023-02-19T09:46:41.218Z,8.96
2023-02-19T09:48:12.848Z,10.32
2023-02-19T09:49:44.396Z,9.01
2023-02-19T09:51:15.776Z,8.71
2023-02-19T09:53:07.612Z,9.01
2023-02-19T09:54:38.874Z,10.39
2023-02-19T09:56:10.207Z,8.94
2023-02-19T09:57:41.972Z,7.24
2023-02-19T09:59:14.065Z,6.57
2023-02-19T10:00:45.373Z,6.33
2023-02-19T10:02:16.812Z,7.85
2023-02-19T10:03:48.179Z,8.39
2023-02-19T10:05:19.597Z,6.99
2023-02-19T10:06:50.940Z,9.20
2023-02-19T10:08:22.259Z,9.57
2023-02-19T10:09:53.546Z,6.45
2023-02-19T10:11:25.122Z,7.24
2023-02-19T10:12:56.811Z,5.73
2023-02-19T10:14:28.553Z,6.70
2023-02-19T10:15:59.943Z,8.77
2023-02-19T10:17:31.180Z,7.70
2023-02-19T10:19:02.746Z,6.69
2023-02-19T10:20:34.086Z,6.30
2023-02-19T10:22:05.507Z,7.04
2023-02-19T10:23:36.829Z,5.72
2023-02-19T10:25:08.281Z,7.59
2023-02-19T10:26:39.736Z,6.42
2023-02-19T10:28:11.021Z,6.10
2023-02-19T10:29:42.423Z,6.33
2023-02-19T10:31:14.319Z,7.50
2023-02-19T10:32:46.145Z,6.95
2023-02-19T10:34:17.609Z,6.50
2023-02-19T10:35:48.905Z,8.56
2023-02-19T10:37:20.199Z,9.81
2023-02-19T10:38:51.499Z,10.11
2023-02-19T10:40:22.800Z,8.65
2023-02-19T10:41:54.120Z,9.91
2023-02-19T10:43:25.438Z,9.13
2023-02-19T10:44:56.845Z,8.52
2023-02-19T10:46:28.149Z,7.36
2023-02-19T10:47:59.509Z,6.96
2023-02-19T10:49:31.518Z,8.39
2023-02-19T10:51:02.970Z,8.41
2023-02-19T10:52:34.212Z,7.23
2023-02-19T10:54:05.581Z,7.51
2023-02-19T10:55:42.188Z,6.78
2023-02-19T10:57:13.517Z,7.87
2023-02-19T10:58:44.926Z,7.80
2023-02-19T11:00:16.243Z,8.10
2023-02-19T11:01:52.588Z,8.45
2023-02-19T11:03:23.984Z,8.06
2023-02-19T11:04:55.232Z,7.42
2023-02-19T11:06:26.581Z,7.07
2023-02-19T11:08:14.658Z,6.73
2023-02-19T11:09:46.277Z,6.96
2023-02-19T11:11:18.072Z,6.95
2023-02-19T11:12:54.556Z,6.13
2023-02-19T11:14:25.913Z,4.75
2023-02-19T11:15:57.489Z,5.98
2023-02-19T11:17:28.921Z,6.65
2023-02-19T11:19:11.999Z,6.21
2023-02-19T11:20:43.328Z,5.89
2023-02-19T11:22:14.796Z,5.84
2023-02-19T11:23:47.100Z,4.92
2023-02-19T11:25:18.461Z,5.17
2023-02-19T11:26:50.061Z,5.61
2023-02-19T11:28:21.390Z,5.70
2023-02-19T11:29:53.155Z,5.89
2023-02-19T11:31:36.052Z,5.69
2023-02-19T11:33:27.739Z,5.68
2023-02-19T11:34:59.378Z,5.24
2023-02-19T11:36:31.800Z,5.19
2023-02-19T11:38:04.742Z,4.26
2023-02-19T11:39:36.045Z,4.63
2023-02-19T11:41:07.561Z,4.95
2023-02-19T11:42:39.269Z,4.85
2023-02-19T11:44:10.799Z,5.06
2023-02-19T11:45:42.342Z,4.41
2023-02-19T11:47:13.675Z,4.27
2023-02-19T11:48:54.138Z,4.86
2023-02-19T11:50:26.806Z,4.11
2023-02-19T11:51:58.133Z,3.65
2023-02-19T11:53:29.469Z,3.88
2023-02-19T11:55:00.760Z,3.99
2023-02-19T11:56:32.867Z,3.64
2023-02-19T11:58:04.114Z,3.48
2023-02-19T11:59:35.703Z,4.33
2023-02-19T12:01:07.083Z,3.88
2023-02-19T12:02:38.457Z,3.94
2023-02-19T12:04:09.820Z,3.94
2023-02-19T12:05:41.138Z,4.46
2023-02-19T12:07:12.642Z,4.02
2023-02-19T12:08:49.476Z,3.85
2023-02-19T12:10:20.877Z,3.87
2023-02-19T12:11:54.006Z,3.60
2023-02-19T12:13:26.305Z,4.21
2023-02-19T12:14:58.086Z,4.94
2023-02-19T12:16:29.716Z,4.51
2023-02-19T12:18:01.519Z,4.97
2023-02-19T12:19:33.017Z,3.89
2023-02-19T12:21:04.310Z,4.03
2023-02-19T12:22:35.919Z,3.88
2023-02-19T12:24:17.391Z,4.23
2023-02-19T12:25:53.843Z,4.49
2023-02-19T12:27:30.293Z,4.06
2023-02-19T12:29:01.811Z,4.92
2023-02-19T12:30:38.498Z,3.71
2023-02-19T12:32:10.148Z,2.98
2023-02-19T12:33:41.531Z,4.07
2023-02-19T12:35:18.707Z,3.86
2023-02-19T12:36:50.925Z,4.84
2023-02-19T12:38:23.457Z,3.81
2023-02-19T12:39:54.943Z,3.08
2023-02-19T12:41:26.653Z,3.36
2023-02-19T12:42:58.246Z,3.71
2023-02-19T12:44:29.925Z,3.73
2023-02-19T12:46:01.393Z,3.94
2023-02-19T12:47:32.991Z,4.60
2023-02-19T12:49:06.485Z,4.90
2023-02-19T12:50:53.586Z,5.52
2023-02-19T12:52:37.940Z,5.40
2023-02-19T12:54:09.104Z,5.00
2023-02-19T12:55:40.456Z,4.63
2023-02-19T12:57:11.695Z,5.05
2023-02-19T12:58:43.102Z,6.03
2023-02-19T13:00:14.484Z,5.70
2023-02-19T13:01:46.165Z,7.01
2023-02-19T13:03:17.663Z,6.18
2023-02-19T13:04:48.944Z,6.57
2023-02-19T13:06:20.226Z,5.35
2023-02-19T13:08:02.343Z,5.66
2023-02-19T13:09:34.022Z,4.88
2023-02-19T13:11:05.595Z,5.33
2023-02-19T13:12:52.184Z,6.42
2023-02-19T13:14:23.493Z,6.66
2023-02-19T13:15:54.907Z,6.36
2023-02-19T13:17:26.398Z,5.50
2023-02-19T13:19:02.873Z,6.30
2023-02-19T13:20:39.739Z,7.08
2023-02-19T13:22:12.072Z,7.64
2023-02-19T13:23:43.452Z,6.71
2023-02-19T13:25:24.741Z,5.48
2023-02-19T13:26:56.050Z,4.64
2023-02-19T13:28:44.953Z,5.16
2023-02-19T13:30:16.451Z,6.48
2023-02-19T13:31:48.318Z,5.55
2023-02-19T13:33:19.810Z,5.69
2023-02-19T13:34:51.095Z,4.82
2023-02-19T13:36:22.581Z,4.68
2023-02-19T13:37:53.881Z,4.57
2023-02-19T13:39:25.179Z,4.73
2023-02-19T13:41:01.554Z,4.59
2023-02-19T13:42:42.902Z,4.69
2023-02-19T13:44:14.254Z,4.76
2023-02-19T13:45:45.772Z,4.84
2023-02-19T13:47:17.374Z,4.80
2023-02-19T13:48:48.798Z,5.14
2023-02-19T13:50:25.085Z,5.58
2023-02-19T13:51:56.646Z,5.28
2023-02-19T13:53:27.849Z,5.18
2023-02-19T13:54:59.224Z,5.32
2023-02-19T13:56:30.455Z,5.07
2023-02-19T13:58:08.211Z,5.10
2023-02-19T13:59:39.451Z,5.04
2023-02-19T14:01:11.193Z,5.46
2023-02-19T14:02:58.423Z,5.72
2023-02-19T14:04:29.857Z,5.60
2023-02-19T14:06:01.423Z,5.34
2023-02-19T14:07:42.882Z,5.31
2023-02-19T14:09:15.679Z,6.06
2023-02-19T14:10:46.985Z,6.85
2023-02-19T14:12:18.240Z,6.68
2023-02-19T14:13:49.853Z,7.09
2023-02-19T14:15:41.569Z,7.21
2023-02-19T14:17:12.918Z,7.38
2023-02-19T14:18:45.269Z,6.96
2023-02-19T14:20:16.541Z,7.23
2023-02-19T14:21:47.864Z,7.07
2023-02-19T14:23:19.466Z,7.20
2023-02-19T14:24:55.751Z,7.14
2023-02-19T14:26:32.785Z,8.14
2023-02-19T14:28:04.031Z,8.19
2023-02-19T14:29:49.084Z,8.04
2023-02-19T14:31:46.100Z,7.93
2023-02-19T14:35:24.512Z,8.30
2023-02-19T14:36:56.121Z,8.58
2023-02-19T14:38:27.891Z,8.84
2023-02-19T14:40:15.602Z,8.73
2023-02-19T14:41:52.152Z,9.09
2023-02-19T14:43:23.807Z,9.65
2023-02-19T14:45:32.894Z,9.72
2023-02-19T14:47:04.364Z,10.04
2023-02-19T14:48:35.760Z,9.70
2023-02-19T14:50:07.260Z,9.84
2023-02-19T14:52:13.012Z,10.32
2023-02-19T14:53:44.918Z,10.27
2023-02-19T14:55:16.621Z,10.65
2023-02-19T14:57:07.891Z,10.74
2023-02-19T14:58:39.270Z,11.16
2023-02-19T15:00:11.169Z,10.65
2023-02-19T15:01:43.768Z,11.40
2023-02-19T15:03:20.165Z,12.11
2023-02-19T15:04:51.875Z,13.10
2023-02-19T15:06:23.622Z,13.18
2023-02-19T15:07:55.137Z,12.47
2023-02-19T15:09:26.955Z,12.80
2023-02-19T15:10:58.410Z,12.63
2023-02-19T15:12:29.780Z,13.24
2023-02-19T15:14:01.193Z,13.56
2023-02-19T15:15:32.699Z,12.80
2023-02-19T15:17:04.128Z,12.92
2023-02-19T15:18:35.669Z,13.18
2023-02-19T15:20:07.047Z,13.74
2023-02-19T15:21:38.313Z,13.57
2023-02-19T15:23:09.511Z,13.33
2023-02-19T15:24:40.979Z,13.21
2023-02-19T15:26:12.379Z,14.34
2023-02-19T15:27:43.775Z,13.97
2023-02-19T15:29:15.144Z,13.31
2023-02-19T15:30:46.730Z,13.59
2023-02-19T15:32:18.425Z,13.01
2023-02-19T15:33:49.893Z,13.24
2023-02-19T15:35:21.279Z,13.91
2023-02-19T15:37:37.925Z,14.02
2023-02-19T15:39:09.699Z,14.41
2023-02-19T15:40:41.341Z,14.26
2023-02-19T15:42:45.400Z,14.03
2023-02-19T15:44:16.873Z,13.87
2023-02-19T15:45:58.367Z,13.94
2023-02-19T15:48:15.865Z,13.72
2023-02-19T15:50:18.392Z,13.12
2023-02-19T15:52:13.938Z,13.39
2023-02-19T15:53:45.290Z,13.67
2023-02-19T15:55:16.581Z,13.27
2023-02-19T15:56:47.949Z,13.89
2023-02-19T15:58:19.312Z,14.05
2023-02-19T15:59:50.732Z,13.87
2023-02-19T16:01:22.121Z,13.66
2023-02-19T16:02:53.727Z,11.95
2023-02-19T16:04:25.042Z,12.84
2023-02-19T16:05:56.792Z,12.06
2023-02-19T16:07:28.205Z,11.88
2023-02-19T16:08:59.491Z,12.28
2023-02-19T16:10:30.822Z,13.18
2023-02-19T16:12:02.195Z,14.80
2023-02-19T16:13:33.491Z,13.03
2023-02-19T16:15:04.783Z,11.05
2023-02-19T16:16:36.517Z,11.79
2023-02-19T16:18:07.895Z,13.21
2023-02-19T16:19:39.280Z,13.79
2023-02-19T16:21:10.923Z,14.32
2023-02-19T16:22:42.360Z,13.69
2023-02-19T16:24:14.170Z,13.02
2023-02-19T16:25:45.500Z,13.91
2023-02-19T16:27:16.879Z,14.14
2023-02-19T16:29:21.516Z,13.75
2023-02-19T16:30:53.106Z,13.92
2023-02-19T16:32:24.532Z,14.35
2023-02-19T16:34:28.019Z,15.44
2023-02-19T16:36:00.309Z,15.98
2023-02-19T16:37:31.843Z,17.83
2023-02-19T16:39:03.294Z,18.10
2023-02-19T16:40:34.878Z,18.05
2023-02-19T16:42:06.162Z,17.42
2023-02-19T16:43:37.494Z,18.94
2023-02-19T16:45:38.616Z,18.53
2023-02-19T16:47:10.052Z,17.99
2023-02-19T16:48:42.593Z,18.18
2023-02-19T16:50:14.991Z,18.25
2023-02-19T16:51:47.204Z,16.55
2023-02-19T16:53:19.270Z,17.42
2023-02-19T16:54:50.593Z,16.88
2023-02-19T16:56:21.838Z,17.43
2023-02-19T16:57:53.154Z,15.78
2023-02-19T16:59:24.435Z,14.56
2023-02-19T17:00:56.015Z,15.46
2023-02-19T17:02:27.320Z,14.34
2023-02-19T17:03:58.806Z,15.36
2023-02-19T17:05:30.254Z,13.97
2023-02-19T17:07:01.602Z,14.35
2023-02-19T17:08:33.251Z,11.90
2023-02-19T17:10:07.416Z,9.47
2023-02-19T17:11:38.960Z,11.07
2023-02-19T17:13:10.305Z,9.13
2023-02-19T17:14:47.242Z,9.22
2023-02-19T17:16:23.897Z,8.63
2023-02-19T17:18:05.490Z,7.64
2023-02-19T17:19:48.550Z,6.12
2023-02-19T17:21:19.953Z,7.88
2023-02-19T17:22:52.820Z,7.77
2023-02-19T17:26:45.302Z,9.23
2023-02-19T17:28:41.430Z,9.53
2023-02-19T17:30:17.951Z,8.84
2023-02-19T17:32:34.077Z,6.90
2023-02-19T17:34:05.506Z,8.69
2023-02-19T17:35:37.166Z,8.13
2023-02-19T17:37:15.523Z,10.72
2023-02-19T17:39:15.181Z,10.62
2023-02-19T17:41:22.050Z,9.22
2023-02-19T17:43:40.000Z,11.64
2023-02-19T17:45:11.672Z,10.44
2023-02-19T17:48:37.984Z,10.45
2023-02-19T17:50:09.368Z,9.96
2023-02-19T17:51:40.682Z,8.12
2023-02-19T17:53:11.947Z,9.99
2023-02-19T17:54:43.341Z,5.80
2023-02-19T17:56:14.734Z,7.72
2023-02-19T17:58:01.220Z,8.60
2023-02-19T17:59:32.658Z,6.78
2023-02-19T18:01:04.179Z,6.47
2023-02-19T18:02:35.465Z,6.75
2023-02-19T18:04:07.006Z,8.43
2023-02-19T18:05:38.417Z,8.65
2023-02-19T18:07:09.708Z,8.10
2023-02-19T18:08:41.098Z,5.23
2023-02-19T18:10:12.547Z,9.35
2023-02-19T18:11:43.852Z,9.31
2023-02-19T18:13:15.244Z,11.46
2023-02-19T18:14:46.523Z,9.71
2023-02-19T18:16:18.196Z,9.75
2023-02-19T18:17:49.516Z,8.92
2023-02-19T18:19:20.867Z,10.04
2023-02-19T18:20:52.241Z,7.78
2023-02-19T18:22:23.585Z,8.37
2023-02-19T18:23:54.969Z,7.38
2023-02-19T18:25:26.376Z,6.67
2023-02-19T18:26:57.654Z,6.95
2023-02-19T18:28:29.061Z,8.79
2023-02-19T18:30:00.922Z,9.40
2023-02-19T18:31:32.548Z,9.54
2023-02-19T18:33:04.368Z,8.58
2023-02-19T18:34:35.804Z,10.29
2023-02-19T18:36:07.090Z,13.46
2023-02-19T18:37:38.315Z,11.06
2023-02-19T18:39:09.994Z,9.90
2023-02-19T18:40:41.417Z,10.56
2023-02-19T18:42:12.652Z,8.21
2023-02-19T18:43:44.056Z,9.75
2023-02-19T18:45:15.368Z,9.67
2023-02-19T18:46:46.712Z,7.77
2023-02-19T18:48:17.979Z,8.61
2023-02-19T18:49:54.390Z,8.93
2023-02-19T18:51:25.750Z,10.06
2023-02-19T18:52:57.114Z,10.63
2023-02-19T18:54:28.383Z,11.59
2023-02-19T18:55:59.800Z,11.43
2023-02-19T18:57:31.039Z,11.20
2023-02-19T18:59:02.529Z,6.36
2023-02-19T19:00:33.935Z,3.62
2023-02-19T19:02:05.160Z,2.99
2023-02-19T19:03:41.488Z,2.43
2023-02-19T19:05:12.741Z,2.70
2023-02-19T19:06:44.244Z,2.58
2023-02-19T19:08:15.852Z,2.78
2023-02-19T19:09:52.248Z,3.09
2023-02-19T19:11:23.671Z,3.30
2023-02-19T19:13:00.054Z,3.25
2023-02-19T19:14:36.789Z,3.63
2023-02-19T19:16:08.424Z,3.71
2023-02-19T19:17:40.077Z,3.72
2023-02-19T19:19:21.867Z,4.04
2023-02-19T19:20:53.378Z,4.24
2023-02-19T19:22:24.719Z,4.52
2023-02-19T19:23:56.142Z,4.68
2023-02-19T19:25:36.045Z,4.39
2023-02-19T19:27:07.624Z,5.05
2023-02-19T19:28:49.910Z,4.94
2023-02-19T19:30:21.343Z,5.57
2023-02-19T19:31:52.792Z,5.72
2023-02-19T19:33:24.487Z,5.68
2023-02-19T19:34:55.902Z,5.58
2023-02-19T19:36:27.424Z,6.04
2023-02-19T19:37:58.780Z,6.11
2023-02-19T19:39:30.049Z,5.88
2023-02-19T19:41:01.736Z,5.92
2023-02-19T19:42:32.964Z,6.42
2023-02-19T19:44:04.311Z,6.47
2023-02-19T19:45:35.707Z,6.57
2023-02-19T19:47:06.958Z,7.28
2023-02-19T19:48:38.378Z,7.37
2023-02-19T19:50:10.261Z,6.56
2023-02-19T19:51:41.541Z,6.70
2023-02-19T19:53:12.735Z,6.44
2023-02-19T19:54:44.046Z,6.32
2023-02-19T19:56:15.414Z,6.99
2023-02-19T19:57:46.813Z,6.82
2023-02-19T19:59:23.178Z,6.38
2023-02-19T20:00:54.573Z,6.17
2023-02-19T20:02:25.889Z,6.58
2023-02-19T20:03:57.127Z,6.53
2023-02-19T20:06:00.587Z,7.45
2023-02-19T20:07:36.885Z,7.74
2023-02-19T20:09:14.646Z,7.66
2023-02-19T20:10:46.444Z,8.16
2023-02-19T20:12:17.725Z,7.26
2023-02-19T20:13:50.055Z,7.24
2023-02-19T20:15:21.339Z,7.15
2023-02-19T20:16:52.608Z,7.15
2023-02-19T20:18:28.999Z,6.97
2023-02-19T20:20:00.281Z,6.95
2023-02-19T20:21:51.545Z,6.92
2023-02-19T20:23:22.889Z,7.36
2023-02-19T20:24:54.126Z,7.72
2023-02-19T20:26:25.388Z,7.79
2023-02-19T20:27:56.624Z,7.81
2023-02-19T20:29:27.924Z,7.55